sensor_id;sensor_type;location;lat;lon;timestamp;P1;durP1;ratioP1;P2;durP2;ratioP2
34204;SDS011;20471;49.680;20.074;2023-07-08T00:01:07;7.00;;;6.00;;
34204;SDS011;20471;49.680;20.074;2023-07-08T00:03:47;8.30;;;6.00;;
34204;SDS011;20471;49.680;20.074;2023-07-08T00:06:18;9.80;;;6.10;;
34204;SDS011;20471;49.680;20.074;2023-07-08T00:08:44;13.50;;;7.20;;
34204;SDS011;20471;49.680;20.074;2023-07-08T00:11:11;13.30;;;7.10;;
34204;SDS011;20471;49.680;20.074;2023-07-08T00:13:39;10.90;;;5.70;;
34204;SDS011;20471;49.680;20.074;2023-07-08T00:16:13;10.60;;;6.50;;
34204;SDS011;20471;49.680;20.074;2023-07-08T00:18:42;12.70;;;7.60;;
34204;SDS011;20471;49.680;20.074;2023-07-08T00:21:09;9.10;;;5.50;;
34204;SDS011;20471;49.680;20.074;2023-07-08T00:26:10;7.20;;;5.60;;
34204;SDS011;20471;49.680;20.074;2023-07-08T00:28:56;8.20;;;5.60;;
34204;SDS011;20471;49.680;20.074;2023-07-08T00:31:23;8.00;;;5.30;;
34204;SDS011;20471;49.680;20.074;2023-07-08T00:33:51;8.00;;;5.50;;
34204;SDS011;20471;49.680;20.074;2023-07-08T00:36:21;9.60;;;5.60;;
34204;SDS011;20471;49.680;20.074;2023-07-08T00:38:49;6.40;;;5.60;;
34204;SDS011;20471;49.680;20.074;2023-07-08T00:43:48;8.50;;;5.50;;
34204;SDS011;20471;49.680;20.074;2023-07-08T00:51:34;7.00;;;5.70;;
34204;SDS011;20471;49.680;20.074;2023-07-08T00:54:05;9.40;;;5.80;;
34204;SDS011;20471;49.680;20.074;2023-07-08T00:56:42;9.30;;;5.70;;
34204;SDS011;20471;49.680;20.074;2023-07-08T00:59:29;8.30;;;5.70;;
34204;SDS011;20471;49.680;20.074;2023-07-08T01:02:01;7.40;;;5.30;;
34204;SDS011;20471;49.680;20.074;2023-07-08T01:05:19;6.30;;;5.10;;
34204;SDS011;20471;49.680;20.074;2023-07-08T01:07:25;7.80;;;5.40;;
34204;SDS011;20471;49.680;20.074;2023-07-08T01:09:55;9.20;;;6.30;;
34204;SDS011;20471;49.680;20.074;2023-07-08T01:12:33;8.40;;;6.80;;
34204;SDS011;20471;49.680;20.074;2023-07-08T01:15:03;7.60;;;6.10;;
34204;SDS011;20471;49.680;20.074;2023-07-08T01:17:32;7.90;;;5.20;;
34204;SDS011;20471;49.680;20.074;2023-07-08T01:19:59;6.30;;;5.50;;
34204;SDS011;20471;49.680;20.074;2023-07-08T01:22:30;7.70;;;5.40;;
34204;SDS011;20471;49.680;20.074;2023-07-08T01:49:49;8.50;;;5.90;;
34204;SDS011;20471;49.680;20.074;2023-07-08T01:52:16;9.10;;;5.50;;
34204;SDS011;20471;49.680;20.074;2023-07-08T01:54:44;11.20;;;6.90;;
34204;SDS011;20471;49.680;20.074;2023-07-08T01:57:10;7.30;;;5.20;;
34204;SDS011;20471;49.680;20.074;2023-07-08T01:59:36;7.50;;;5.60;;
34204;SDS011;20471;49.680;20.074;2023-07-08T02:02:02;8.90;;;5.70;;
34204;SDS011;20471;49.680;20.074;2023-07-08T02:04:29;7.50;;;5.60;;
34204;SDS011;20471;49.680;20.074;2023-07-08T02:54:57;6.80;;;4.90;;
34204;SDS011;20471;49.680;20.074;2023-07-08T03:10:35;9.60;;;5.50;;
34204;SDS011;20471;49.680;20.074;2023-07-08T03:13:02;8.20;;;5.80;;
34204;SDS011;20471;49.680;20.074;2023-07-08T03:15:30;6.50;;;5.60;;
34204;SDS011;20471;49.680;20.074;2023-07-08T03:17:58;6.70;;;5.50;;
34204;SDS011;20471;49.680;20.074;2023-07-08T03:20:27;6.60;;;5.90;;
34204;SDS011;20471;49.680;20.074;2023-07-08T03:22:54;6.70;;;5.70;;
34204;SDS011;20471;49.680;20.074;2023-07-08T03:25:22;8.00;;;6.20;;
34204;SDS011;20471;49.680;20.074;2023-07-08T03:27:51;7.10;;;5.90;;
34204;SDS011;20471;49.680;20.074;2023-07-08T03:30:18;8.10;;;5.90;;
34204;SDS011;20471;49.680;20.074;2023-07-08T03:32:46;7.10;;;5.50;;
34204;SDS011;20471;49.680;20.074;2023-07-08T03:35:14;6.50;;;5.20;;
34204;SDS011;20471;49.680;20.074;2023-07-08T03:37:41;9.70;;;5.50;;
34204;SDS011;20471;49.680;20.074;2023-07-08T03:43:37;7.90;;;6.00;;
34204;SDS011;20471;49.680;20.074;2023-07-08T03:46:03;6.20;;;5.60;;
34204;SDS011;20471;49.680;20.074;2023-07-08T03:48:30;6.60;;;5.50;;
34204;SDS011;20471;49.680;20.074;2023-07-08T03:50:56;8.00;;;5.90;;
34204;SDS011;20471;49.680;20.074;2023-07-08T03:53:22;6.70;;;6.00;;
34204;SDS011;20471;49.680;20.074;2023-07-08T03:55:49;9.40;;;5.80;;
34204;SDS011;20471;49.680;20.074;2023-07-08T03:58:15;8.30;;;5.50;;
34204;SDS011;20471;49.680;20.074;2023-07-08T04:00:41;9.90;;;6.50;;
34204;SDS011;20471;49.680;20.074;2023-07-08T04:03:08;7.70;;;5.70;;
34204;SDS011;20471;49.680;20.074;2023-07-08T04:05:59;7.50;;;6.10;;
34204;SDS011;20471;49.680;20.074;2023-07-08T04:08:27;7.90;;;6.30;;
34204;SDS011;20471;49.680;20.074;2023-07-08T04:10:55;8.40;;;6.20;;
34204;SDS011;20471;49.680;20.074;2023-07-08T04:13:22;10.50;;;6.40;;
34204;SDS011;20471;49.680;20.074;2023-07-08T04:18:59;8.20;;;7.20;;
34204;SDS011;20471;49.680;20.074;2023-07-08T04:21:27;8.30;;;7.00;;
34204;SDS011;20471;49.680;20.074;2023-07-08T04:23:56;11.80;;;9.40;;
34204;SDS011;20471;49.680;20.074;2023-07-08T04:26:24;13.60;;;11.10;;
34204;SDS011;20471;49.680;20.074;2023-07-08T04:29:51;14.30;;;10.40;;
34204;SDS011;20471;49.680;20.074;2023-07-08T04:32:17;14.80;;;8.90;;
34204;SDS011;20471;49.680;20.074;2023-07-08T04:34:43;10.30;;;7.90;;
34204;SDS011;20471;49.680;20.074;2023-07-08T04:37:10;11.70;;;8.10;;
34204;SDS011;20471;49.680;20.074;2023-07-08T04:39:38;13.20;;;9.00;;
34204;SDS011;20471;49.680;20.074;2023-07-08T04:42:04;11.30;;;8.40;;
34204;SDS011;20471;49.680;20.074;2023-07-08T04:44:30;12.20;;;8.30;;
34204;SDS011;20471;49.680;20.074;2023-07-08T04:46:58;11.40;;;7.80;;
34204;SDS011;20471;49.680;20.074;2023-07-08T04:49:25;9.20;;;8.10;;
34204;SDS011;20471;49.680;20.074;2023-07-08T04:51:53;11.10;;;8.10;;
34204;SDS011;20471;49.680;20.074;2023-07-08T04:54:19;10.80;;;8.00;;
34204;SDS011;20471;49.680;20.074;2023-07-08T08:31:42;4.60;;;1.90;;
34204;SDS011;20471;49.680;20.074;2023-07-08T08:34:09;2.90;;;2.30;;
34204;SDS011;20471;49.680;20.074;2023-07-08T08:36:35;2.20;;;2.00;;
34204;SDS011;20471;49.680;20.074;2023-07-08T08:39:01;3.00;;;2.40;;
34204;SDS011;20471;49.680;20.074;2023-07-08T08:41:33;2.50;;;1.90;;
34204;SDS011;20471;49.680;20.074;2023-07-08T08:44:01;2.70;;;2.40;;
34204;SDS011;20471;49.680;20.074;2023-07-08T08:46:49;3.90;;;2.10;;
34204;SDS011;20471;49.680;20.074;2023-07-08T08:49:35;2.80;;;2.30;;
34204;SDS011;20471;49.680;20.074;2023-07-08T08:52:14;3.30;;;1.90;;
34204;SDS011;20471;49.680;20.074;2023-07-08T08:54:45;2.60;;;1.90;;
34204;SDS011;20471;49.680;20.074;2023-07-08T08:59:57;1.50;;;1.40;;
34204;SDS011;20471;49.680;20.074;2023-07-08T09:02:27;3.80;;;2.00;;
34204;SDS011;20471;49.680;20.074;2023-07-08T09:05:33;4.90;;;2.40;;
34204;SDS011;20471;49.680;20.074;2023-07-08T09:08:02;3.60;;;1.90;;
34204;SDS011;20471;49.680;20.074;2023-07-08T09:13:52;2.70;;;2.00;;
34204;SDS011;20471;49.680;20.074;2023-07-08T09:19:22;3.40;;;1.90;;
34204;SDS011;20471;49.680;20.074;2023-07-08T09:24:45;2.70;;;2.00;;
34204;SDS011;20471;49.680;20.074;2023-07-08T09:27:35;3.10;;;1.70;;
34204;SDS011;20471;49.680;20.074;2023-07-08T09:30:01;2.80;;;1.90;;
34204;SDS011;20471;49.680;20.074;2023-07-08T09:32:28;3.20;;;1.70;;
34204;SDS011;20471;49.680;20.074;2023-07-08T09:34:56;3.60;;;1.90;;
34204;SDS011;20471;49.680;20.074;2023-07-08T09:37:30;2.60;;;2.20;;
34204;SDS011;20471;49.680;20.074;2023-07-08T09:40:09;3.20;;;1.90;;
34204;SDS011;20471;49.680;20.074;2023-07-08T09:42:43;3.90;;;2.10;;
34204;SDS011;20471;49.680;20.074;2023-07-08T09:45:14;5.50;;;2.20;;
34204;SDS011;20471;49.680;20.074;2023-07-08T09:47:43;2.60;;;2.10;;
34204;SDS011;20471;49.680;20.074;2023-07-08T09:50:19;3.90;;;2.10;;
34204;SDS011;20471;49.680;20.074;2023-07-08T09:52:47;1.80;;;1.70;;
34204;SDS011;20471;49.680;20.074;2023-07-08T09:55:15;5.10;;;2.30;;
34204;SDS011;20471;49.680;20.074;2023-07-08T09:57:43;4.10;;;2.40;;
34204;SDS011;20471;49.680;20.074;2023-07-08T10:00:12;4.10;;;2.10;;
34204;SDS011;20471;49.680;20.074;2023-07-08T10:02:45;4.10;;;2.30;;
34204;SDS011;20471;49.680;20.074;2023-07-08T10:05:22;2.10;;;1.70;;
34204;SDS011;20471;49.680;20.074;2023-07-08T10:07:52;8.30;;;2.90;;
34204;SDS011;20471;49.680;20.074;2023-07-08T10:10:26;2.40;;;1.90;;
34204;SDS011;20471;49.680;20.074;2023-07-08T10:12:57;6.80;;;2.10;;
34204;SDS011;20471;49.680;20.074;2023-07-08T10:15:33;4.90;;;2.40;;
34204;SDS011;20471;49.680;20.074;2023-07-08T10:18:04;1.80;;;1.60;;
34204;SDS011;20471;49.680;20.074;2023-07-08T10:20:39;4.80;;;1.80;;
34204;SDS011;20471;49.680;20.074;2023-07-08T10:23:18;1.90;;;1.80;;
34204;SDS011;20471;49.680;20.074;2023-07-08T10:25:54;2.90;;;2.00;;
34204;SDS011;20471;49.680;20.074;2023-07-08T10:36:40;4.60;;;3.00;;
34204;SDS011;20471;49.680;20.074;2023-07-08T10:45:34;6.20;;;2.40;;
34204;SDS011;20471;49.680;20.074;2023-07-08T10:56:26;2.40;;;1.90;;
34204;SDS011;20471;49.680;20.074;2023-07-08T11:09:49;2.60;;;2.30;;
34204;SDS011;20471;49.680;20.074;2023-07-08T11:12:31;2.50;;;1.90;;
34204;SDS011;20471;49.680;20.074;2023-07-08T11:17:58;2.70;;;1.80;;
34204;SDS011;20471;49.680;20.074;2023-07-08T11:20:50;1.80;;;1.60;;
34204;SDS011;20471;49.680;20.074;2023-07-08T11:23:35;3.20;;;2.10;;
34204;SDS011;20471;49.680;20.074;2023-07-08T11:26:16;5.40;;;2.10;;
34204;SDS011;20471;49.680;20.074;2023-07-08T11:28:53;3.80;;;2.00;;
34204;SDS011;20471;49.680;20.074;2023-07-08T11:31:22;2.80;;;2.10;;
34204;SDS011;20471;49.680;20.074;2023-07-08T11:33:51;5.10;;;2.00;;
34204;SDS011;20471;49.680;20.074;2023-07-08T11:36:20;2.40;;;1.90;;
34204;SDS011;20471;49.680;20.074;2023-07-08T11:38:52;2.20;;;1.70;;
34204;SDS011;20471;49.680;20.074;2023-07-08T11:41:21;3.20;;;1.70;;
34204;SDS011;20471;49.680;20.074;2023-07-08T11:43:56;1.80;;;1.70;;
34204;SDS011;20471;49.680;20.074;2023-07-08T11:46:29;4.10;;;1.80;;
34204;SDS011;20471;49.680;20.074;2023-07-08T11:49:02;2.70;;;2.00;;
34204;SDS011;20471;49.680;20.074;2023-07-08T11:51:34;2.00;;;1.80;;
34204;SDS011;20471;49.680;20.074;2023-07-08T11:56:46;2.80;;;2.00;;
34204;SDS011;20471;49.680;20.074;2023-07-08T11:59:19;4.90;;;2.00;;
34204;SDS011;20471;49.680;20.074;2023-07-08T12:01:47;2.00;;;1.90;;
34204;SDS011;20471;49.680;20.074;2023-07-08T12:06:54;4.30;;;1.90;;
34204;SDS011;20471;49.680;20.074;2023-07-08T12:09:59;2.60;;;1.80;;
34204;SDS011;20471;49.680;20.074;2023-07-08T12:12:32;2.70;;;2.00;;
34204;SDS011;20471;49.680;20.074;2023-07-08T12:15:08;2.70;;;1.90;;
34204;SDS011;20471;49.680;20.074;2023-07-08T12:17:58;2.90;;;1.60;;
34204;SDS011;20471;49.680;20.074;2023-07-08T12:20:29;2.00;;;1.80;;
34204;SDS011;20471;49.680;20.074;2023-07-08T12:22:58;2.60;;;1.60;;
34204;SDS011;20471;49.680;20.074;2023-07-08T12:25:29;4.60;;;1.60;;
34204;SDS011;20471;49.680;20.074;2023-07-08T12:28:01;2.60;;;1.80;;
34204;SDS011;20471;49.680;20.074;2023-07-08T12:30:28;1.60;;;1.50;;
34204;SDS011;20471;49.680;20.074;2023-07-08T12:32:57;2.00;;;1.60;;
34204;SDS011;20471;49.680;20.074;2023-07-08T12:35:27;2.70;;;1.60;;
34204;SDS011;20471;49.680;20.074;2023-07-08T12:37:58;1.90;;;1.70;;
34204;SDS011;20471;49.680;20.074;2023-07-08T12:40:29;1.90;;;1.70;;
34204;SDS011;20471;49.680;20.074;2023-07-08T12:42:56;1.70;;;1.60;;
34204;SDS011;20471;49.680;20.074;2023-07-08T12:45:26;2.30;;;1.90;;
34204;SDS011;20471;49.680;20.074;2023-07-08T12:47:55;2.10;;;1.90;;
34204;SDS011;20471;49.680;20.074;2023-07-08T12:50:22;1.90;;;1.70;;
34204;SDS011;20471;49.680;20.074;2023-07-08T12:52:49;2.60;;;1.40;;
34204;SDS011;20471;49.680;20.074;2023-07-08T12:55:15;2.60;;;1.50;;
34204;SDS011;20471;49.680;20.074;2023-07-08T12:57:43;2.00;;;1.60;;
34204;SDS011;20471;49.680;20.074;2023-07-08T13:00:18;2.50;;;1.50;;
34204;SDS011;20471;49.680;20.074;2023-07-08T13:05:34;3.80;;;1.80;;
34204;SDS011;20471;49.680;20.074;2023-07-08T13:08:01;1.90;;;1.80;;
34204;SDS011;20471;49.680;20.074;2023-07-08T13:10:28;2.60;;;1.70;;
34204;SDS011;20471;49.680;20.074;2023-07-08T13:12:56;3.60;;;2.20;;
34204;SDS011;20471;49.680;20.074;2023-07-08T13:15:33;1.80;;;1.70;;
34204;SDS011;20471;49.680;20.074;2023-07-08T13:18:05;1.60;;;1.50;;
34204;SDS011;20471;49.680;20.074;2023-07-08T13:20:42;2.00;;;1.80;;
34204;SDS011;20471;49.680;20.074;2023-07-08T13:23:13;1.70;;;1.60;;
34204;SDS011;20471;49.680;20.074;2023-07-08T13:25:39;2.60;;;1.60;;
34204;SDS011;20471;49.680;20.074;2023-07-08T13:31:22;2.20;;;1.60;;
34204;SDS011;20471;49.680;20.074;2023-07-08T13:33:50;3.00;;;1.50;;
34204;SDS011;20471;49.680;20.074;2023-07-08T13:36:27;3.00;;;1.60;;
34204;SDS011;20471;49.680;20.074;2023-07-08T13:39:02;4.70;;;1.90;;
34204;SDS011;20471;49.680;20.074;2023-07-08T13:41:35;4.90;;;3.00;;
34204;SDS011;20471;49.680;20.074;2023-07-08T13:44:06;4.30;;;2.00;;
34204;SDS011;20471;49.680;20.074;2023-07-08T13:46:44;1.80;;;1.70;;
34204;SDS011;20471;49.680;20.074;2023-07-08T13:49:38;2.20;;;1.90;;
34204;SDS011;20471;49.680;20.074;2023-07-08T13:52:08;2.40;;;2.00;;
34204;SDS011;20471;49.680;20.074;2023-07-08T13:54:42;4.90;;;2.90;;
34204;SDS011;20471;49.680;20.074;2023-07-08T13:57:14;4.60;;;3.20;;
34204;SDS011;20471;49.680;20.074;2023-07-08T13:59:43;4.10;;;2.50;;
34204;SDS011;20471;49.680;20.074;2023-07-08T14:02:20;3.80;;;1.70;;
34204;SDS011;20471;49.680;20.074;2023-07-08T14:04:50;2.50;;;1.80;;
34204;SDS011;20471;49.680;20.074;2023-07-08T14:07:23;2.20;;;2.00;;
34204;SDS011;20471;49.680;20.074;2023-07-08T14:09:52;2.10;;;1.90;;
34204;SDS011;20471;49.680;20.074;2023-07-08T14:12:20;3.00;;;1.70;;
34204;SDS011;20471;49.680;20.074;2023-07-08T14:14:47;4.80;;;1.90;;
34204;SDS011;20471;49.680;20.074;2023-07-08T14:17:26;1.70;;;1.60;;
34204;SDS011;20471;49.680;20.074;2023-07-08T14:19:53;2.70;;;1.90;;
34204;SDS011;20471;49.680;20.074;2023-07-08T14:22:23;2.00;;;1.80;;
34204;SDS011;20471;49.680;20.074;2023-07-08T14:24:50;4.90;;;1.80;;
34204;SDS011;20471;49.680;20.074;2023-07-08T14:27:17;3.20;;;1.50;;
34204;SDS011;20471;49.680;20.074;2023-07-08T14:29:48;2.20;;;1.70;;
34204;SDS011;20471;49.680;20.074;2023-07-08T14:32:23;1.80;;;1.60;;
34204;SDS011;20471;49.680;20.074;2023-07-08T14:34:53;6.00;;;2.00;;
34204;SDS011;20471;49.680;20.074;2023-07-08T14:37:21;5.20;;;1.90;;
34204;SDS011;20471;49.680;20.074;2023-07-08T14:39:48;1.70;;;1.60;;
34204;SDS011;20471;49.680;20.074;2023-07-08T14:42:16;4.10;;;2.00;;
34204;SDS011;20471;49.680;20.074;2023-07-08T14:44:47;3.20;;;1.70;;
34204;SDS011;20471;49.680;20.074;2023-07-08T14:47:16;3.70;;;1.80;;
34204;SDS011;20471;49.680;20.074;2023-07-08T14:49:44;3.30;;;1.90;;
34204;SDS011;20471;49.680;20.074;2023-07-08T14:52:11;4.50;;;1.90;;
34204;SDS011;20471;49.680;20.074;2023-07-08T14:54:41;2.80;;;1.80;;
34204;SDS011;20471;49.680;20.074;2023-07-08T14:57:07;3.50;;;2.30;;
34204;SDS011;20471;49.680;20.074;2023-07-08T14:59:40;2.20;;;2.00;;
34204;SDS011;20471;49.680;20.074;2023-07-08T15:02:13;2.20;;;1.80;;
34204;SDS011;20471;49.680;20.074;2023-07-08T15:04:44;1.90;;;1.70;;
34204;SDS011;20471;49.680;20.074;2023-07-08T15:07:10;4.40;;;2.20;;
34204;SDS011;20471;49.680;20.074;2023-07-08T15:09:37;4.00;;;1.90;;
34204;SDS011;20471;49.680;20.074;2023-07-08T15:12:03;3.70;;;2.10;;
34204;SDS011;20471;49.680;20.074;2023-07-08T15:14:30;2.40;;;2.20;;
34204;SDS011;20471;49.680;20.074;2023-07-08T15:16:58;5.70;;;2.10;;
34204;SDS011;20471;49.680;20.074;2023-07-08T15:19:25;8.70;;;2.20;;
34204;SDS011;20471;49.680;20.074;2023-07-08T15:21:51;4.40;;;2.30;;
34204;SDS011;20471;49.680;20.074;2023-07-08T15:24:17;6.20;;;2.50;;
34204;SDS011;20471;49.680;20.074;2023-07-08T15:26:45;4.70;;;2.60;;
34204;SDS011;20471;49.680;20.074;2023-07-08T15:29:22;7.90;;;2.80;;
34204;SDS011;20471;49.680;20.074;2023-07-08T15:31:52;4.90;;;2.40;;
34204;SDS011;20471;49.680;20.074;2023-07-08T15:34:20;4.90;;;2.10;;
34204;SDS011;20471;49.680;20.074;2023-07-08T15:36:48;3.10;;;2.80;;
34204;SDS011;20471;49.680;20.074;2023-07-08T15:39:15;5.50;;;3.20;;
34204;SDS011;20471;49.680;20.074;2023-07-08T15:41:41;3.30;;;2.30;;
34204;SDS011;20471;49.680;20.074;2023-07-08T15:44:12;2.90;;;2.30;;
34204;SDS011;20471;49.680;20.074;2023-07-08T15:46:43;3.90;;;2.10;;
34204;SDS011;20471;49.680;20.074;2023-07-08T15:49:14;3.50;;;2.20;;
34204;SDS011;20471;49.680;20.074;2023-07-08T15:51:42;3.40;;;2.10;;
34204;SDS011;20471;49.680;20.074;2023-07-08T15:54:10;2.90;;;2.50;;
34204;SDS011;20471;49.680;20.074;2023-07-08T15:56:37;3.20;;;2.20;;
34204;SDS011;20471;49.680;20.074;2023-07-08T15:59:04;3.00;;;2.20;;
34204;SDS011;20471;49.680;20.074;2023-07-08T16:01:35;2.50;;;2.30;;
34204;SDS011;20471;49.680;20.074;2023-07-08T16:04:02;4.60;;;2.40;;
34204;SDS011;20471;49.680;20.074;2023-07-08T16:06:29;2.70;;;2.00;;
34204;SDS011;20471;49.680;20.074;2023-07-08T16:08:55;4.30;;;2.20;;
34204;SDS011;20471;49.680;20.074;2023-07-08T16:11:25;2.90;;;2.00;;
34204;SDS011;20471;49.680;20.074;2023-07-08T16:13:55;2.70;;;1.90;;
34204;SDS011;20471;49.680;20.074;2023-07-08T16:16:22;5.90;;;2.10;;
34204;SDS011;20471;49.680;20.074;2023-07-08T16:18:51;7.10;;;2.10;;
34204;SDS011;20471;49.680;20.074;2023-07-08T18:57:59;8.80;;;5.10;;
34204;SDS011;20471;49.680;20.074;2023-07-08T19:00:33;11.00;;;7.60;;
34204;SDS011;20471;49.680;20.074;2023-07-08T19:03:48;13.10;;;7.70;;
34204;SDS011;20471;49.680;20.074;2023-07-08T19:15:23;15.60;;;7.20;;
34204;SDS011;20471;49.680;20.074;2023-07-08T19:24:26;11.50;;;7.40;;
34204;SDS011;20471;49.680;20.074;2023-07-08T19:36:45;7.90;;;5.70;;
34204;SDS011;20471;49.680;20.074;2023-07-08T19:39:59;12.60;;;7.30;;
34204;SDS011;20471;49.680;20.074;2023-07-08T19:48:45;11.90;;;7.20;;
34204;SDS011;20471;49.680;20.074;2023-07-08T19:51:35;11.00;;;3.60;;
34204;SDS011;20471;49.680;20.074;2023-07-08T19:57:49;8.80;;;7.50;;
34204;SDS011;20471;49.680;20.074;2023-07-08T20:02:55;13.00;;;8.70;;
34204;SDS011;20471;49.680;20.074;2023-07-08T20:05:26;12.70;;;8.30;;
34204;SDS011;20471;49.680;20.074;2023-07-08T20:07:58;10.10;;;7.10;;
34204;SDS011;20471;49.680;20.074;2023-07-08T20:10:27;11.10;;;6.80;;
34204;SDS011;20471;49.680;20.074;2023-07-08T20:13:00;12.90;;;8.40;;
34204;SDS011;20471;49.680;20.074;2023-07-08T20:15:28;15.50;;;9.30;;
34204;SDS011;20471;49.680;20.074;2023-07-08T20:17:56;9.90;;;8.90;;
34204;SDS011;20471;49.680;20.074;2023-07-08T20:20:27;11.40;;;7.60;;
34204;SDS011;20471;49.680;20.074;2023-07-08T20:22:55;11.20;;;8.00;;
34204;SDS011;20471;49.680;20.074;2023-07-08T20:25:22;10.80;;;8.50;;
34204;SDS011;20471;49.680;20.074;2023-07-08T20:27:51;11.50;;;8.70;;
34204;SDS011;20471;49.680;20.074;2023-07-08T20:30:21;11.60;;;8.50;;
34204;SDS011;20471;49.680;20.074;2023-07-08T20:32:52;11.70;;;8.30;;
34204;SDS011;20471;49.680;20.074;2023-07-08T20:35:21;11.30;;;7.60;;
34204;SDS011;20471;49.680;20.074;2023-07-08T20:37:51;10.80;;;7.60;;
34204;SDS011;20471;49.680;20.074;2023-07-08T20:40:21;11.50;;;8.10;;
34204;SDS011;20471;49.680;20.074;2023-07-08T20:42:51;14.40;;;7.40;;
34204;SDS011;20471;49.680;20.074;2023-07-08T20:45:24;10.60;;;6.90;;
34204;SDS011;20471;49.680;20.074;2023-07-08T20:48:02;7.90;;;6.20;;
34204;SDS011;20471;49.680;20.074;2023-07-08T20:50:30;7.60;;;6.40;;
34204;SDS011;20471;49.680;20.074;2023-07-08T20:52:58;7.10;;;5.50;;
34204;SDS011;20471;49.680;20.074;2023-07-08T20:55:27;8.50;;;6.40;;
34204;SDS011;20471;49.680;20.074;2023-07-08T20:57:55;7.70;;;5.70;;
34204;SDS011;20471;49.680;20.074;2023-07-08T21:00:24;10.10;;;6.50;;
34204;SDS011;20471;49.680;20.074;2023-07-08T21:02:57;9.50;;;5.60;;
34204;SDS011;20471;49.680;20.074;2023-07-08T21:05:26;10.30;;;7.20;;
34204;SDS011;20471;49.680;20.074;2023-07-08T21:07:56;10.50;;;7.10;;
34204;SDS011;20471;49.680;20.074;2023-07-08T21:10:26;11.70;;;8.00;;
34204;SDS011;20471;49.680;20.074;2023-07-08T21:12:55;8.70;;;6.80;;
34204;SDS011;20471;49.680;20.074;2023-07-08T21:15:29;8.60;;;6.50;;
34204;SDS011;20471;49.680;20.074;2023-07-08T21:18:00;13.00;;;7.30;;
34204;SDS011;20471;49.680;20.074;2023-07-08T21:20:29;11.80;;;7.80;;
34204;SDS011;20471;49.680;20.074;2023-07-08T21:22:56;11.00;;;7.20;;
34204;SDS011;20471;49.680;20.074;2023-07-08T21:25:24;11.70;;;7.20;;
34204;SDS011;20471;49.680;20.074;2023-07-08T21:46:09;7.60;;;5.90;;
34204;SDS011;20471;49.680;20.074;2023-07-08T21:48:37;9.70;;;5.40;;
34204;SDS011;20471;49.680;20.074;2023-07-08T21:51:15;7.10;;;5.30;;
34204;SDS011;20471;49.680;20.074;2023-07-08T21:53:51;9.10;;;5.40;;
34204;SDS011;20471;49.680;20.074;2023-07-08T21:56:18;8.70;;;5.70;;
34204;SDS011;20471;49.680;20.074;2023-07-08T21:58:44;11.60;;;6.90;;
34204;SDS011;20471;49.680;20.074;2023-07-08T22:01:13;13.70;;;7.60;;
34204;SDS011;20471;49.680;20.074;2023-07-08T22:03:44;10.10;;;6.70;;
34204;SDS011;20471;49.680;20.074;2023-07-08T22:06:11;10.30;;;6.80;;
34204;SDS011;20471;49.680;20.074;2023-07-08T22:08:37;9.80;;;5.60;;
34204;SDS011;20471;49.680;20.074;2023-07-08T22:11:05;8.80;;;5.70;;
34204;SDS011;20471;49.680;20.074;2023-07-08T22:13:39;10.40;;;5.40;;
34204;SDS011;20471;49.680;20.074;2023-07-08T22:16:06;7.30;;;5.20;;
34204;SDS011;20471;49.680;20.074;2023-07-08T22:18:36;9.00;;;4.80;;
34204;SDS011;20471;49.680;20.074;2023-07-08T22:21:05;5.30;;;4.60;;
34204;SDS011;20471;49.680;20.074;2023-07-08T23:28:14;6.70;;;4.50;;
